Time;durP1;ratioP1;P1;durP2;ratioP2;P2;SDS_P1;SDS_P2;PMS_P1;PMS_P2;Temp;Humidity;BMP_temperature;BMP_pressure;BME280_temperature;BME280_humidity;BME280_pressure;Samples;Min_cycle;Max_cycle;Signal;HPM_P1;HPM_P2
2023/06/23 00:02:25;;;;;;;;;;;18.70;99.90;;;;;;8407701;28;19931;-72
2023/06/23 00:06:27;;;;;;;;;;;18.60;99.90;;;;;;8411424;28;19928;-72
2023/06/23 00:10:28;;;;;;;;;;;18.60;99.90;;;;;;8405440;28;20467;-72
2023/06/23 00:14:30;;;;;;;;;;;18.50;99.90;;;;;;8415602;28;19925;-72
2023/06/23 00:18:32;;;;;;;;;;;18.50;99.90;;;;;;8438828;27;19935;-72
2023/06/23 00:22:34;;;;;;;;;;;18.50;99.90;;;;;;8409602;28;19928;-72
2023/06/23 00:26:36;;;;;;;;;;;18.50;99.90;;;;;;8389780;28;19982;-72
2023/06/23 00:30:37;;;;;;;;;;;18.50;99.90;;;;;;8414557;28;19931;-72
2023/06/23 00:34:39;;;;;;;;;;;18.40;99.90;;;;;;8410028;28;19939;-73
2023/06/23 00:38:41;;;;;;;;;;;18.40;99.90;;;;;;8421599;28;20606;-72
2023/06/23 00:42:46;;;;;;;;;;;18.40;99.90;;;;;;8417305;28;20299;-72
2023/06/23 00:46:49;;;;;;;;;;;18.40;99.90;;;;;;8385568;28;19966;-72
2023/06/23 00:50:51;;;;;;;;;;;18.40;99.90;;;;;;8404199;28;19924;-72
2023/06/23 00:54:52;;;;;;;;;;;18.40;99.90;;;;;;8385512;28;19931;-72
2023/06/23 00:58:55;;;;;;;;;;;18.40;99.90;;;;;;8424536;28;19931;-71
2023/06/23 01:03:01;;;;;;;;;;;18.40;99.90;;;;;;8425686;28;19928;-72
2023/06/23 01:07:03;;;;;;;;;;;18.30;99.90;;;;;;8418170;28;19924;-72
2023/06/23 01:11:11;;;;;;;;;;;18.30;99.90;;;;;;8414569;28;19955;-72
2023/06/23 01:15:16;;;;;;;;;;;18.30;99.90;;;;;;8428267;28;19976;-72
2023/06/23 01:19:31;;;;;;;;;;;18.30;99.90;;;;;;8424205;28;19923;-72
2023/06/23 01:23:53;;;;;;;;;;;18.20;99.90;;;;;;8408650;28;19954;-72
2023/06/23 01:27:58;;;;;;;;;;;18.20;99.90;;;;;;8414374;28;19928;-72
2023/06/23 01:32:05;;;;;;;;;;;18.30;99.90;;;;;;8415273;28;20300;-72
2023/06/23 01:36:09;;;;;;;;;;;18.30;99.90;;;;;;8427867;28;19924;-72
2023/06/23 01:40:15;;;;;;;;;;;18.30;99.90;;;;;;8423215;28;19957;-72
2023/06/23 01:44:17;;;;;;;;;;;18.30;99.90;;;;;;8410114;28;19924;-72
2023/06/23 01:48:19;;;;;;;;;;;18.20;99.90;;;;;;8405912;28;19924;-72
2023/06/23 01:52:21;;;;;;;;;;;18.20;99.90;;;;;;8407092;28;19928;-72
2023/06/23 01:56:25;;;;;;;;;;;18.20;99.90;;;;;;8399118;28;19970;-72
2023/06/23 02:00:27;;;;;;;;;;;18.10;99.90;;;;;;8400173;28;19936;-72
2023/06/23 02:04:29;;;;;;;;;;;18.10;99.90;;;;;;8389554;28;19924;-72
2023/06/23 02:08:32;;;;;;;;;;;18.10;99.90;;;;;;8415728;28;19931;-72
2023/06/23 02:12:35;;;;;;;;;;;18.10;99.90;;;;;;8403537;28;19924;-72
2023/06/23 02:16:38;;;;;;;;;;;18.20;99.90;;;;;;8419068;28;20284;-72
2023/06/23 02:20:40;;;;;;;;;;;18.10;99.90;;;;;;8409012;28;19924;-72
2023/06/23 02:24:43;;;;;;;;;;;18.10;99.90;;;;;;8397100;28;19924;-72
2023/06/23 02:28:49;;;;;;;;;;;18.10;99.90;;;;;;8421254;28;19923;-72
2023/06/23 02:32:51;;;;;;;;;;;18.00;99.90;;;;;;8411323;28;19924;-72
2023/06/23 02:36:55;;;;;;;;;;;17.90;99.90;;;;;;8415445;28;19970;-72
2023/06/23 02:40:57;;;;;;;;;;;17.80;99.90;;;;;;8399961;28;19927;-72
2023/06/23 02:45:02;;;;;;;;;;;17.80;99.90;;;;;;8424379;28;20364;-72
2023/06/23 02:49:05;;;;;;;;;;;17.80;99.90;;;;;;8417842;28;20303;-72
2023/06/23 02:53:08;;;;;;;;;;;17.80;99.90;;;;;;8406398;28;20375;-72
2023/06/23 02:57:14;;;;;;;;;;;17.80;99.90;;;;;;8420996;28;19924;-72
2023/06/23 03:01:16;;;;;;;;;;;17.80;99.90;;;;;;8409221;28;19934;-71
2023/06/23 03:05:21;;;;;;;;;;;17.70;99.90;;;;;;8416284;28;19928;-71
2023/06/23 03:09:23;;;;;;;;;;;17.60;99.90;;;;;;8414726;28;19931;-72
2023/06/23 03:13:25;;;;;;;;;;;17.60;99.90;;;;;;8404989;28;19978;-72
2023/06/23 03:17:28;;;;;;;;;;;17.50;99.90;;;;;;8404616;28;20383;-73
2023/06/23 03:21:31;;;;;;;;;;;17.50;99.90;;;;;;8419090;28;19968;-72
2023/06/23 03:25:33;;;;;;;;;;;17.40;99.90;;;;;;8423319;28;19939;-72
2023/06/23 03:29:37;;;;;;;;;;;17.40;99.90;;;;;;8394681;28;19939;-72
2023/06/23 03:33:43;;;;;;;;;;;17.40;99.90;;;;;;8396480;28;19933;-72
2023/06/23 03:37:49;;;;;;;;;;;17.30;99.90;;;;;;8402981;28;19928;-72
2023/06/23 03:41:51;;;;;;;;;;;17.30;99.90;;;;;;8398862;28;20311;-71
2023/06/23 03:45:55;;;;;;;;;;;17.30;99.90;;;;;;8432985;27;19924;-72
2023/06/23 03:50:02;;;;;;;;;;;17.30;99.90;;;;;;8417216;28;19971;-71
2023/06/23 03:54:04;;;;;;;;;;;17.30;99.90;;;;;;8394498;28;19932;-71
2023/06/23 03:58:07;;;;;;;;;;;17.40;99.90;;;;;;8408846;28;20283;-72
2023/06/23 04:02:09;;;;;;;;;;;17.40;99.90;;;;;;8407783;28;20368;-71
2023/06/23 04:06:11;;;;;;;;;;;17.40;99.90;;;;;;8396964;28;20337;-71
2023/06/23 04:10:17;;;;;;;;;;;17.40;99.90;;;;;;8408072;28;20368;-71
2023/06/23 04:14:20;;;;;;;;;;;17.40;99.90;;;;;;8408649;28;19932;-71
2023/06/23 04:18:23;;;;;;;;;;;17.40;99.90;;;;;;8402021;28;20291;-71
2023/06/23 04:22:29;;;;;;;;;;;17.40;99.90;;;;;;8408897;28;19932;-70
2023/06/23 04:26:31;;;;;;;;;;;17.50;99.90;;;;;;8423390;28;19932;-70
2023/06/23 04:30:34;;;;;;;;;;;17.50;99.90;;;;;;8389745;28;19924;-70
2023/06/23 04:34:36;;;;;;;;;;;17.50;99.90;;;;;;8407303;28;19924;-71
2023/06/23 04:38:40;;;;;;;;;;;17.60;99.90;;;;;;8402510;28;19957;-70
2023/06/23 04:42:44;;;;;;;;;;;17.60;99.90;;;;;;8400442;28;19928;-70
2023/06/23 04:46:46;;;;;;;;;;;17.70;99.90;;;;;;8418263;28;19928;-70
2023/06/23 04:50:48;;;;;;;;;;;17.70;99.90;;;;;;8428896;28;19954;-70
2023/06/23 04:54:51;;;;;;;;;;;17.80;99.90;;;;;;8422905;28;19924;-71
2023/06/23 04:58:54;;;;;;;;;;;17.80;99.90;;;;;;8421242;28;19924;-70
2023/06/23 05:02:57;;;;;;;;;;;17.80;99.90;;;;;;8430866;28;19932;-70
2023/06/23 05:07:00;;;;;;;;;;;17.90;99.90;;;;;;8413617;28;19927;-70
2023/06/23 05:11:05;;;;;;;;;;;17.90;99.90;;;;;;8432235;28;20390;-70
2023/06/23 05:15:07;;;;;;;;;;;18.00;99.90;;;;;;8420945;28;19940;-70
2023/06/23 05:19:10;;;;;;;;;;;18.00;99.90;;;;;;8401785;28;19927;-71
2023/06/23 05:23:13;;;;;;;;;;;18.00;99.90;;;;;;8387630;28;20202;-70
2023/06/23 05:27:16;;;;;;;;;;;18.10;99.90;;;;;;8412890;28;19924;-70
2023/06/23 05:31:19;;;;;;;;;;;18.10;99.90;;;;;;8409530;28;20260;-71
2023/06/23 05:35:22;;;;;;;;;;;18.20;99.90;;;;;;8424421;28;19925;-70
2023/06/23 05:39:25;;;;;;;;;;;18.20;99.90;;;;;;8435267;28;20360;-70
2023/06/23 05:43:27;;;;;;;;;;;18.20;99.90;;;;;;8392744;28;19924;-72
2023/06/23 05:47:49;;;;;;;;;;;18.30;99.90;;;;;;8406999;28;19927;-70
2023/06/23 05:51:55;;;;;;;;;;;18.40;99.90;;;;;;8400096;28;20326;-71
2023/06/23 05:56:05;;;;;;;;;;;18.50;99.90;;;;;;8414305;28;19964;-70
2023/06/23 06:00:11;;;;;;;;;;;18.50;99.90;;;;;;8424635;28;19927;-70
2023/06/23 06:04:14;;;;;;;;;;;18.60;99.90;;;;;;8420470;28;20035;-70
2023/06/23 06:08:16;;;;;;;;;;;18.70;99.90;;;;;;8429102;28;20234;-70
2023/06/23 06:12:18;;;;;;;;;;;18.80;99.90;;;;;;8409631;28;19962;-70
2023/06/23 06:16:20;;;;;;;;;;;18.90;99.90;;;;;;8426200;28;19931;-70
2023/06/23 06:20:22;;;;;;;;;;;19.00;99.90;;;;;;8423560;28;19931;-70
2023/06/23 06:24:25;;;;;;;;;;;19.20;99.90;;;;;;8423545;28;19924;-70
2023/06/23 06:28:27;;;;;;;;;;;19.30;99.90;;;;;;8416134;28;19935;-71
2023/06/23 06:32:32;;;;;;;;;;;19.40;99.90;;;;;;8407297;28;19963;-71
2023/06/23 06:36:34;;;;;;;;;;;19.60;99.90;;;;;;8438049;28;19924;-70
2023/06/23 06:40:38;;;;;;;;;;;19.60;99.90;;;;;;8425874;28;20371;-70
2023/06/23 06:44:39;;;;;;;;;;;19.50;99.90;;;;;;8428935;28;19934;-70
2023/06/23 06:48:42;;;;;;;;;;;19.50;99.90;;;;;;8413029;28;19932;-71
2023/06/23 06:52:44;;;;;;;;;;;19.50;99.90;;;;;;8408707;28;19935;-70
2023/06/23 06:56:46;;;;;;;;;;;19.60;99.90;;;;;;8411842;28;19975;-70
2023/06/23 07:00:49;;;;;;;;;;;19.60;99.90;;;;;;8420872;28;19967;-70
2023/06/23 07:04:52;;;;;;;;;;;19.70;99.90;;;;;;8419632;28;20006;-70
2023/06/23 07:08:53;;;;;;;;;;;19.90;99.90;;;;;;8418592;28;19924;-70
2023/06/23 07:12:55;;;;;;;;;;;20.00;99.90;;;;;;8412345;28;19932;-70
2023/06/23 07:16:56;;;;;;;;;;;20.10;99.90;;;;;;8420474;28;19948;-71
2023/06/23 07:21:00;;;;;;;;;;;20.30;99.90;;;;;;8427657;28;20287;-71
2023/06/23 07:25:01;;;;;;;;;;;20.40;99.90;;;;;;8418050;28;19970;-71
2023/06/23 07:29:03;;;;;;;;;;;20.50;99.90;;;;;;8422497;28;20017;-71
2023/06/23 07:33:05;;;;;;;;;;;20.60;99.90;;;;;;8411636;28;19928;-70
2023/06/23 07:37:10;;;;;;;;;;;20.60;99.90;;;;;;8413082;28;19929;-70
2023/06/23 07:41:11;;;;;;;;;;;20.70;99.90;;;;;;8414766;28;19981;-71
2023/06/23 07:45:13;;;;;;;;;;;20.80;99.90;;;;;;8414883;28;20402;-70
2023/06/23 07:49:15;;;;;;;;;;;20.80;99.90;;;;;;8420568;28;19924;-71
2023/06/23 07:53:16;;;;;;;;;;;20.80;99.90;;;;;;8411832;28;19928;-70
2023/06/23 07:57:19;;;;;;;;;;;20.90;99.90;;;;;;8411536;28;19924;-70
2023/06/23 08:01:21;;;;;;;;;;;21.00;99.90;;;;;;8399512;28;19977;-70
2023/06/23 08:05:23;;;;;;;;;;;21.00;99.90;;;;;;8423401;28;20236;-70
2023/06/23 08:09:25;;;;;;;;;;;21.10;99.90;;;;;;8405626;28;19925;-70
2023/06/23 08:13:27;;;;;;;;;;;21.10;99.90;;;;;;8416779;28;19939;-70
2023/06/23 08:17:28;;;;;;;;;;;21.20;99.90;;;;;;8419731;28;19931;-70
2023/06/23 08:21:36;;;;;;;;;;;21.20;99.90;;;;;;8428240;28;20348;-70
2023/06/23 08:25:38;;;;;;;;;;;21.20;99.90;;;;;;8406329;28;19925;-70
2023/06/23 08:29:39;;;;;;;;;;;21.30;99.90;;;;;;8393602;28;19928;-70
2023/06/23 08:33:42;;;;;;;;;;;21.30;99.90;;;;;;8431457;28;19924;-70
2023/06/23 08:37:44;;;;;;;;;;;21.30;99.90;;;;;;8397583;28;19970;-70
2023/06/23 08:41:47;;;;;;;;;;;21.40;99.90;;;;;;8396345;28;20372;-70
2023/06/23 08:45:50;;;;;;;;;;;21.40;99.90;;;;;;8408227;28;19935;-70
2023/06/23 08:49:52;;;;;;;;;;;21.40;99.90;;;;;;8402832;28;20414;-70
2023/06/23 08:53:54;;;;;;;;;;;21.50;99.90;;;;;;8417394;28;19924;-70
2023/06/23 08:58:00;;;;;;;;;;;21.50;99.90;;;;;;8426867;28;20013;-70
2023/06/23 09:02:03;;;;;;;;;;;21.60;99.90;;;;;;8434063;28;20363;-70
2023/06/23 09:06:05;;;;;;;;;;;21.60;99.90;;;;;;8420818;28;19982;-71
2023/06/23 09:10:07;;;;;;;;;;;21.70;99.90;;;;;;8430729;28;19923;-70
2023/06/23 09:14:09;;;;;;;;;;;21.70;99.90;;;;;;8425832;28;19931;-70
2023/06/23 09:18:12;;;;;;;;;;;21.80;99.90;;;;;;8418107;28;20295;-69
2023/06/23 09:22:16;;;;;;;;;;;21.90;99.90;;;;;;8418018;28;19932;-70
2023/06/23 09:26:18;;;;;;;;;;;22.00;99.90;;;;;;8419331;28;19924;-70
2023/06/23 09:30:20;;;;;;;;;;;22.00;99.90;;;;;;8398451;28;20368;-70
2023/06/23 09:34:23;;;;;;;;;;;22.10;99.90;;;;;;8398168;28;19925;-70
2023/06/23 09:38:25;;;;;;;;;;;22.10;99.90;;;;;;8429075;28;20393;-69
2023/06/23 09:42:31;;;;;;;;;;;22.20;99.90;;;;;;8414359;28;20580;-71
2023/06/23 09:46:35;;;;;;;;;;;22.30;99.90;;;;;;8417585;28;19925;-70
2023/06/23 09:50:37;;;;;;;;;;;22.40;99.90;;;;;;8418574;28;19925;-70
2023/06/23 09:54:39;;;;;;;;;;;22.50;99.90;;;;;;8411619;28;20295;-70
2023/06/23 09:58:42;;;;;;;;;;;22.50;99.90;;;;;;8424994;28;20413;-71
2023/06/23 10:02:44;;;;;;;;;;;22.50;99.90;;;;;;8436297;28;19931;-70
2023/06/23 10:06:46;;;;;;;;;;;22.60;99.90;;;;;;8410981;28;20319;-70
2023/06/23 10:10:47;;;;;;;;;;;22.70;99.90;;;;;;8415799;28;19928;-71
2023/06/23 10:14:50;;;;;;;;;;;22.70;99.90;;;;;;8412630;28;20360;-70
2023/06/23 10:18:52;;;;;;;;;;;22.80;99.90;;;;;;8414567;28;19943;-70
2023/06/23 10:22:55;;;;;;;;;;;22.80;99.90;;;;;;8430364;28;19925;-70
2023/06/23 10:26:58;;;;;;;;;;;22.90;99.90;;;;;;8416617;28;19951;-69
2023/06/23 10:31:02;;;;;;;;;;;22.90;99.90;;;;;;8411243;28;19924;-71
2023/06/23 10:35:07;;;;;;;;;;;23.00;99.90;;;;;;8424762;28;19978;-71
2023/06/23 10:39:10;;;;;;;;;;;23.00;99.90;;;;;;8418968;28;19931;-71
2023/06/23 10:43:12;;;;;;;;;;;23.10;99.90;;;;;;8422705;28;19994;-70
2023/06/23 10:47:15;;;;;;;;;;;23.20;99.90;;;;;;8421243;28;19931;-71
2023/06/23 10:51:16;;;;;;;;;;;23.20;99.90;;;;;;8422013;28;19924;-70
2023/06/23 10:55:30;;;;;;;;;;;23.30;99.90;;;;;;8425472;28;19932;-71
2023/06/23 10:59:32;;;;;;;;;;;23.30;99.90;;;;;;8424999;28;19931;-71
2023/06/23 11:03:35;;;;;;;;;;;23.40;99.90;;;;;;8404333;28;20364;-70
2023/06/23 11:07:57;;;;;;;;;;;23.50;99.90;;;;;;8431477;28;20362;-71
2023/06/23 11:11:59;;;;;;;;;;;23.50;99.90;;;;;;8440975;28;20326;-71
2023/06/23 11:16:00;;;;;;;;;;;23.60;99.90;;;;;;8414508;28;19924;-71
2023/06/23 11:20:02;;;;;;;;;;;23.60;99.90;;;;;;8432032;28;19924;-71
2023/06/23 11:24:07;;;;;;;;;;;23.70;99.90;;;;;;8417899;28;19924;-71
2023/06/23 11:28:25;;;;;;;;;;;23.70;99.90;;;;;;8437123;28;20325;-71
2023/06/23 11:32:26;;;;;;;;;;;23.80;99.90;;;;;;8437620;28;19924;-71
2023/06/23 11:36:29;;;;;;;;;;;23.90;99.90;;;;;;8435080;28;19935;-71
2023/06/23 11:40:31;;;;;;;;;;;23.90;99.90;;;;;;8407571;28;19924;-71
2023/06/23 11:44:33;;;;;;;;;;;24.00;99.90;;;;;;8384946;28;20020;-71
2023/06/23 11:48:37;;;;;;;;;;;24.00;99.90;;;;;;8398158;28;19947;-71
2023/06/23 11:52:39;;;;;;;;;;;24.10;99.90;;;;;;8386910;28;19982;-70
2023/06/23 11:56:41;;;;;;;;;;;24.20;99.90;;;;;;8398097;28;20384;-70
2023/06/23 12:00:43;;;;;;;;;;;24.20;99.90;;;;;;8405385;28;19931;-71
2023/06/23 12:04:47;;;;;;;;;;;24.20;99.90;;;;;;8392042;28;20368;-71
2023/06/23 12:08:49;;;;;;;;;;;24.30;99.90;;;;;;8403795;28;19928;-69
2023/06/23 12:12:52;;;;;;;;;;;24.40;99.90;;;;;;8406357;28;19972;-71
2023/06/23 12:17:01;;;;;;;;;;;24.40;99.90;;;;;;8406279;28;19924;-71
2023/06/23 12:21:03;;;;;;;;;;;24.50;99.90;;;;;;8399907;28;19981;-71
2023/06/23 12:25:05;;;;;;;;;;;24.60;99.90;;;;;;8399228;28;19943;-72
2023/06/23 12:29:08;;;;;;;;;;;24.60;99.90;;;;;;8390415;28;19930;-72
2023/06/23 12:33:13;;;;;;;;;;;24.60;99.90;;;;;;8407937;28;20254;-72
2023/06/23 12:37:15;;;;;;;;;;;24.70;99.90;;;;;;8398179;28;19928;-71
2023/06/23 12:41:23;;;;;;;;;;;24.70;99.90;;;;;;8405933;28;19928;-72
2023/06/23 12:45:25;;;;;;;;;;;24.70;99.90;;;;;;8418783;28;19978;-72
2023/06/23 12:49:28;;;;;;;;;;;24.80;99.90;;;;;;8425254;28;19924;-71
2023/06/23 12:53:30;;;;;;;;;;;24.80;99.90;;;;;;8418638;28;19925;-71
2023/06/23 12:57:32;;;;;;;;;;;24.80;99.90;;;;;;8430040;28;20367;-71
2023/06/23 13:01:33;;;;;;;;;;;24.80;99.90;;;;;;8432028;28;19987;-71
2023/06/23 13:05:35;;;;;;;;;;;24.90;99.90;;;;;;8416182;28;19932;-71
2023/06/23 13:09:37;;;;;;;;;;;24.90;99.90;;;;;;8400981;28;19977;-72
2023/06/23 13:13:38;;;;;;;;;;;25.00;99.90;;;;;;8429230;28;19935;-70
2023/06/23 13:17:40;;;;;;;;;;;25.00;99.90;;;;;;8436345;27;19970;-71
2023/06/23 13:21:44;;;;;;;;;;;25.00;99.90;;;;;;8415905;28;19932;-71
2023/06/23 13:25:46;;;;;;;;;;;25.00;99.90;;;;;;8416806;28;19928;-71
2023/06/23 13:29:48;;;;;;;;;;;25.00;99.90;;;;;;8435896;28;19924;-70
2023/06/23 13:33:49;;;;;;;;;;;25.10;99.90;;;;;;8413910;28;19928;-71
2023/06/23 13:37:53;;;;;;;;;;;25.10;99.90;;;;;;8415578;28;19935;-71
2023/06/23 13:41:54;;;;;;;;;;;25.10;99.90;;;;;;8439400;28;19935;-71
2023/06/23 13:45:56;;;;;;;;;;;25.10;99.90;;;;;;8401502;28;20132;-71
2023/06/23 13:49:58;;;;;;;;;;;25.10;99.90;;;;;;8418633;28;19931;-71
2023/06/23 13:54:00;;;;;;;;;;;25.20;99.90;;;;;;8421000;28;20318;-71
2023/06/23 13:58:02;;;;;;;;;;;25.20;99.90;;;;;;8433277;28;20010;-71
2023/06/23 14:02:04;;;;;;;;;;;25.20;99.90;;;;;;8431507;28;19924;-71
2023/06/23 14:06:06;;;;;;;;;;;25.30;99.90;;;;;;8427782;28;20438;-71
2023/06/23 14:10:08;;;;;;;;;;;25.30;99.90;;;;;;8427598;28;19969;-71
2023/06/23 14:14:10;;;;;;;;;;;25.40;99.90;;;;;;8410987;28;19935;-70
2023/06/23 14:18:11;;;;;;;;;;;25.40;99.90;;;;;;8404877;28;20301;-71
2023/06/23 14:22:13;;;;;;;;;;;25.40;99.90;;;;;;8424130;28;19928;-71
2023/06/23 14:26:15;;;;;;;;;;;25.50;99.90;;;;;;8426247;28;19924;-70
2023/06/23 14:30:16;;;;;;;;;;;25.60;99.90;;;;;;8398443;28;19932;-71
2023/06/23 14:34:18;;;;;;;;;;;25.60;99.90;;;;;;8416182;28;20432;-71
2023/06/23 14:38:20;;;;;;;;;;;25.60;99.90;;;;;;8407051;28;20277;-72
2023/06/23 14:42:22;;;;;;;;;;;25.70;99.90;;;;;;8381489;28;19924;-71
2023/06/23 14:46:24;;;;;;;;;;;25.70;99.90;;;;;;8422999;28;19932;-71
2023/06/23 14:50:25;;;;;;;;;;;25.90;99.90;;;;;;8404385;28;19925;-71
2023/06/23 14:54:29;;;;;;;;;;;26.00;99.90;;;;;;8388376;28;20193;-71
2023/06/23 14:58:31;;;;;;;;;;;26.00;99.90;;;;;;8401160;28;19967;-72
2023/06/23 15:02:33;;;;;;;;;;;26.10;99.90;;;;;;8399629;28;19924;-71
2023/06/23 15:06:36;;;;;;;;;;;26.10;99.90;;;;;;8382310;28;20393;-71
2023/06/23 15:10:37;;;;;;;;;;;26.10;99.90;;;;;;8384737;28;20377;-71
2023/06/23 15:14:39;;;;;;;;;;;26.10;99.90;;;;;;8401462;28;20383;-71
2023/06/23 15:18:41;;;;;;;;;;;26.00;99.70;;;;;;8394220;28;19932;-70
2023/06/23 15:22:43;;;;;;;;;;;26.00;99.90;;;;;;8366539;28;20450;-71
2023/06/23 15:26:45;;;;;;;;;;;26.10;99.90;;;;;;8408611;28;19924;-70
2023/06/23 15:30:47;;;;;;;;;;;26.10;96.90;;;;;;8379673;28;19969;-71
2023/06/23 15:34:48;;;;;;;;;;;26.10;99.40;;;;;;8394803;28;19924;-71
2023/06/23 15:38:50;;;;;;;;;;;26.10;99.90;;;;;;8426516;28;19928;-71
2023/06/23 15:42:52;;;;;;;;;;;26.20;99.90;;;;;;8430881;28;20202;-70
2023/06/23 15:46:53;;;;;;;;;;;26.30;99.90;;;;;;8430129;28;20278;-71
2023/06/23 15:50:55;;;;;;;;;;;26.30;99.90;;;;;;8412190;28;19928;-70
2023/06/23 15:54:57;;;;;;;;;;;26.40;99.90;;;;;;8417875;28;19932;-70
2023/06/23 15:58:58;;;;;;;;;;;26.50;99.90;;;;;;8410701;28;20372;-70
2023/06/23 16:03:03;;;;;;;;;;;26.60;98.70;;;;;;8404107;28;19928;-70
2023/06/23 16:07:06;;;;;;;;;;;26.70;99.90;;;;;;8401158;28;19933;-70
2023/06/23 16:11:08;;;;;;;;;;;26.60;99.70;;;;;;8407239;28;19989;-70
2023/06/23 16:15:13;;;;;;;;;;;26.60;98.50;;;;;;8416076;28;19924;-70
2023/06/23 16:19:15;;;;;;;;;;;26.60;98.70;;;;;;8411320;28;20008;-70
2023/06/23 16:23:16;;;;;;;;;;;26.70;98.00;;;;;;8411913;28;19928;-70
2023/06/23 16:27:18;;;;;;;;;;;26.80;98.70;;;;;;8416157;28;20658;-70
2023/06/23 16:31:21;;;;;;;;;;;26.90;98.70;;;;;;8402760;28;20627;-71
2023/06/23 16:35:23;;;;;;;;;;;27.00;99.90;;;;;;8414908;28;19924;-70
2023/06/23 16:39:24;;;;;;;;;;;27.20;99.90;;;;;;8402471;28;19924;-70
2023/06/23 16:43:26;;;;;;;;;;;27.40;99.90;;;;;;8407713;28;19978;-70
2023/06/23 16:47:31;;;;;;;;;;;27.60;99.90;;;;;;8420009;28;20101;-70
2023/06/23 16:51:32;;;;;;;;;;;27.80;99.90;;;;;;8415414;28;20318;-70
2023/06/23 16:55:42;;;;;;;;;;;27.70;98.00;;;;;;8410171;28;20032;-71
2023/06/23 16:59:43;;;;;;;;;;;27.60;97.90;;;;;;8410846;28;19932;-70
2023/06/23 17:03:45;;;;;;;;;;;27.50;99.90;;;;;;8410510;28;19927;-70
2023/06/23 17:07:47;;;;;;;;;;;27.50;98.80;;;;;;8410837;28;19928;-70
2023/06/23 17:11:49;;;;;;;;;;;27.30;96.20;;;;;;8417218;27;19925;-71
2023/06/23 17:15:56;;;;;;;;;;;27.10;98.50;;;;;;8414111;28;20058;-70
2023/06/23 17:19:58;;;;;;;;;;;27.00;99.90;;;;;;8409434;28;19972;-70
2023/06/23 17:24:00;;;;;;;;;;;26.80;99.90;;;;;;8424441;28;19984;-70
2023/06/23 17:28:02;;;;;;;;;;;26.70;99.90;;;;;;8391153;28;19930;-70
2023/06/23 17:32:04;;;;;;;;;;;26.60;99.90;;;;;;8410631;28;19924;-70
2023/06/23 17:36:06;;;;;;;;;;;26.60;99.90;;;;;;8411178;28;19928;-70
2023/06/23 17:40:08;;;;;;;;;;;26.50;99.90;;;;;;8401080;28;19928;-71
2023/06/23 17:44:10;;;;;;;;;;;26.40;99.90;;;;;;8406628;28;19927;-71
2023/06/23 17:48:11;;;;;;;;;;;26.30;99.90;;;;;;8405180;28;19924;-70
2023/06/23 17:52:13;;;;;;;;;;;26.20;99.90;;;;;;8389117;28;19970;-71
2023/06/23 17:56:15;;;;;;;;;;;26.10;99.90;;;;;;8398158;28;19924;-71
2023/06/23 18:00:17;;;;;;;;;;;26.00;99.90;;;;;;8411139;28;20295;-71
2023/06/23 18:04:18;;;;;;;;;;;25.90;99.90;;;;;;8413216;28;19924;-71
2023/06/23 18:08:20;;;;;;;;;;;26.00;99.90;;;;;;8427110;27;20364;-71
2023/06/23 18:12:22;;;;;;;;;;;26.00;99.90;;;;;;8416737;28;20372;-71
2023/06/23 18:16:24;;;;;;;;;;;26.10;99.90;;;;;;8427192;28;19955;-72
2023/06/23 18:20:25;;;;;;;;;;;26.10;99.90;;;;;;8412796;28;19925;-71
2023/06/23 18:24:27;;;;;;;;;;;26.10;99.90;;;;;;8416408;28;19968;-71
2023/06/23 18:28:29;;;;;;;;;;;26.00;99.90;;;;;;8395871;28;19927;-71
2023/06/23 18:36:42;;;;;;;;;;;25.80;99.90;;;;;;8418596;28;19938;-71
2023/06/23 18:40:44;;;;;;;;;;;25.70;99.90;;;;;;8440137;28;19973;-71
2023/06/23 18:44:46;;;;;;;;;;;25.60;99.90;;;;;;8425075;27;19932;-71
2023/06/23 18:48:48;;;;;;;;;;;25.50;99.90;;;;;;8447415;27;19931;-71
2023/06/23 18:52:50;;;;;;;;;;;25.40;99.90;;;;;;8450503;27;20393;-71
2023/06/23 18:56:51;;;;;;;;;;;25.40;99.90;;;;;;8454167;27;19932;-71
2023/06/23 19:00:54;;;;;;;;;;;25.30;99.90;;;;;;8458235;27;19950;-71
2023/06/23 19:04:55;;;;;;;;;;;25.30;99.90;;;;;;8455475;27;19928;-71
2023/06/23 19:08:59;;;;;;;;;;;25.20;99.90;;;;;;8445975;27;20279;-71
2023/06/23 19:13:01;;;;;;;;;;;25.20;99.90;;;;;;8451113;27;19946;-71
2023/06/23 19:17:04;;;;;;;;;;;25.10;99.90;;;;;;8447327;27;19953;-70
2023/06/23 19:21:06;;;;;;;;;;;25.00;99.90;;;;;;8454167;27;20267;-71
2023/06/23 19:25:07;;;;;;;;;;;24.90;99.90;;;;;;8444202;27;19923;-71
2023/06/23 19:29:09;;;;;;;;;;;24.80;99.90;;;;;;8447886;27;19930;-71
2023/06/23 19:33:11;;;;;;;;;;;24.70;99.90;;;;;;8456984;27;20498;-71
2023/06/23 19:37:13;;;;;;;;;;;24.70;99.90;;;;;;8432701;27;19930;-71
2023/06/23 19:41:14;;;;;;;;;;;24.60;99.90;;;;;;8453755;27;19928;-70
2023/06/23 19:45:16;;;;;;;;;;;24.50;99.90;;;;;;8434713;27;19939;-70
2023/06/23 19:49:18;;;;;;;;;;;24.40;99.90;;;;;;8437199;27;19954;-71
2023/06/23 19:53:21;;;;;;;;;;;24.30;99.90;;;;;;8435764;27;19955;-70
2023/06/23 19:57:23;;;;;;;;;;;24.20;99.90;;;;;;8444588;28;19924;-71
2023/06/23 20:01:24;;;;;;;;;;;24.00;99.90;;;;;;8461036;27;20601;-71
2023/06/23 20:05:26;;;;;;;;;;;23.90;99.90;;;;;;8454133;27;19924;-70
2023/06/23 20:09:28;;;;;;;;;;;23.80;99.90;;;;;;8442778;27;20014;-71
2023/06/23 20:13:30;;;;;;;;;;;23.70;99.90;;;;;;8433895;28;19954;-71
2023/06/23 20:17:34;;;;;;;;;;;23.60;99.90;;;;;;8421942;27;19932;-71
2023/06/23 20:21:36;;;;;;;;;;;23.50;99.90;;;;;;8426605;27;19930;-70
2023/06/23 20:25:38;;;;;;;;;;;23.40;99.90;;;;;;8437421;27;19953;-71
2023/06/23 20:29:39;;;;;;;;;;;23.20;99.90;;;;;;8446002;27;19923;-71
2023/06/23 20:33:41;;;;;;;;;;;23.20;99.90;;;;;;8439411;27;19928;-71
2023/06/23 20:37:43;;;;;;;;;;;23.00;99.90;;;;;;8423926;27;20014;-71
2023/06/23 20:41:45;;;;;;;;;;;22.90;99.90;;;;;;8437784;27;19928;-71
2023/06/23 20:45:46;;;;;;;;;;;22.80;99.90;;;;;;8427538;27;19935;-71
2023/06/23 20:49:48;;;;;;;;;;;22.70;99.90;;;;;;8443746;27;19928;-70
2023/06/23 20:53:50;;;;;;;;;;;22.70;99.90;;;;;;8441142;27;19927;-70
2023/06/23 20:57:52;;;;;;;;;;;22.50;99.90;;;;;;8442563;27;19931;-71
2023/06/23 21:01:53;;;;;;;;;;;22.40;99.90;;;;;;8448883;27;19924;-71
2023/06/23 21:05:55;;;;;;;;;;;22.40;99.90;;;;;;8441844;27;19954;-71
2023/06/23 21:09:57;;;;;;;;;;;22.20;99.90;;;;;;8449260;27;19930;-71
2023/06/23 21:13:58;;;;;;;;;;;22.20;99.90;;;;;;8445516;27;19939;-71
2023/06/23 21:18:00;;;;;;;;;;;22.10;99.90;;;;;;8450467;27;19924;-71
2023/06/23 21:22:02;;;;;;;;;;;22.00;99.90;;;;;;8439226;28;19932;-71
2023/06/23 21:26:04;;;;;;;;;;;22.00;99.90;;;;;;8441738;27;19924;-71
2023/06/23 21:30:06;;;;;;;;;;;21.80;99.90;;;;;;8453969;27;19983;-70
2023/06/23 21:34:07;;;;;;;;;;;21.70;99.90;;;;;;8442246;28;19930;-71
2023/06/23 21:38:09;;;;;;;;;;;21.70;99.90;;;;;;8428137;28;19924;-71
2023/06/23 21:42:11;;;;;;;;;;;21.60;99.90;;;;;;8444780;28;19923;-72
2023/06/23 21:46:14;;;;;;;;;;;21.50;99.90;;;;;;8433022;28;19931;-71
2023/06/23 21:50:16;;;;;;;;;;;21.40;99.90;;;;;;8443085;28;19950;-71
2023/06/23 21:54:18;;;;;;;;;;;21.40;99.90;;;;;;8444823;28;19928;-71
2023/06/23 21:58:19;;;;;;;;;;;21.30;99.90;;;;;;8418483;28;20094;-71
2023/06/23 22:02:21;;;;;;;;;;;21.30;99.90;;;;;;8450954;28;19931;-71
2023/06/23 22:06:23;;;;;;;;;;;21.20;99.90;;;;;;8439371;28;19932;-70
2023/06/23 22:10:24;;;;;;;;;;;21.20;99.90;;;;;;8448998;28;20381;-71
2023/06/23 22:14:26;;;;;;;;;;;21.10;99.90;;;;;;8445628;28;19932;-70
2023/06/23 22:18:28;;;;;;;;;;;21.00;99.90;;;;;;8435166;28;20467;-71
2023/06/23 22:22:49;;;;;;;;;;;21.00;99.90;;;;;;8438975;28;20259;-70
2023/06/23 22:26:50;;;;;;;;;;;20.90;99.90;;;;;;8416590;28;19935;-71
2023/06/23 22:30:52;;;;;;;;;;;20.90;99.90;;;;;;8439022;28;19977;-71
2023/06/23 22:34:54;;;;;;;;;;;20.80;99.90;;;;;;8450714;28;19995;-70
2023/06/23 22:38:56;;;;;;;;;;;20.80;99.90;;;;;;8412340;28;20298;-70
2023/06/23 22:42:57;;;;;;;;;;;20.70;99.90;;;;;;8453498;27;19927;-71
2023/06/23 22:46:59;;;;;;;;;;;20.60;99.90;;;;;;8452922;27;19942;-71
2023/06/23 22:51:00;;;;;;;;;;;20.60;99.90;;;;;;8431535;27;20282;-70
2023/06/23 22:55:02;;;;;;;;;;;20.50;99.90;;;;;;8449647;27;20333;-71
2023/06/23 22:59:04;;;;;;;;;;;20.40;99.90;;;;;;8430199;27;20022;-71
2023/06/23 23:03:06;;;;;;;;;;;20.40;99.90;;;;;;8445742;27;19923;-70
2023/06/23 23:07:08;;;;;;;;;;;20.40;99.90;;;;;;8453273;27;19924;-70
2023/06/23 23:11:10;;;;;;;;;;;20.30;99.90;;;;;;8448193;27;19924;-71
2023/06/23 23:15:12;;;;;;;;;;;20.30;99.90;;;;;;8452532;27;19934;-71
2023/06/23 23:19:14;;;;;;;;;;;20.20;99.90;;;;;;8446345;27;19923;-70
2023/06/23 23:23:15;;;;;;;;;;;20.20;99.90;;;;;;8449936;27;19931;-71
2023/06/23 23:27:17;;;;;;;;;;;20.10;99.90;;;;;;8442546;27;19929;-71
2023/06/23 23:31:19;;;;;;;;;;;20.10;99.90;;;;;;8439804;27;20279;-70
2023/06/23 23:35:21;;;;;;;;;;;20.00;99.90;;;;;;8455953;27;19928;-71